sensor_id;sensor_type;location;lat;lon;timestamp;P1;durP1;ratioP1;P2;durP2;ratioP2
50301;SDS011;36550;50.472;19.744;2023-07-29T00:00:52;5.40;;;2.40;;
50301;SDS011;36550;50.472;19.744;2023-07-29T00:03:37;5.20;;;2.30;;
50301;SDS011;36550;50.472;19.744;2023-07-29T00:06:22;4.50;;;2.50;;
50301;SDS011;36550;50.472;19.744;2023-07-29T00:09:10;7.00;;;2.50;;
50301;SDS011;36550;50.472;19.744;2023-07-29T00:12:14;7.30;;;2.90;;
50301;SDS011;36550;50.472;19.744;2023-07-29T00:15:18;5.00;;;2.60;;
50301;SDS011;36550;50.472;19.744;2023-07-29T00:18:02;6.00;;;2.50;;
50301;SDS011;36550;50.472;19.744;2023-07-29T00:20:46;6.70;;;2.70;;
50301;SDS011;36550;50.472;19.744;2023-07-29T00:23:31;7.40;;;3.20;;
50301;SDS011;36550;50.472;19.744;2023-07-29T00:26:15;4.80;;;3.00;;
50301;SDS011;36550;50.472;19.744;2023-07-29T00:28:59;6.00;;;3.40;;
50301;SDS011;36550;50.472;19.744;2023-07-29T00:31:44;7.90;;;3.20;;
50301;SDS011;36550;50.472;19.744;2023-07-29T00:34:29;6.00;;;3.40;;
50301;SDS011;36550;50.472;19.744;2023-07-29T00:39:59;6.50;;;3.10;;
50301;SDS011;36550;50.472;19.744;2023-07-29T00:42:43;6.40;;;3.30;;
50301;SDS011;36550;50.472;19.744;2023-07-29T00:45:49;4.30;;;2.90;;
50301;SDS011;36550;50.472;19.744;2023-07-29T00:48:34;6.00;;;3.30;;
50301;SDS011;36550;50.472;19.744;2023-07-29T00:51:19;6.60;;;3.30;;
50301;SDS011;36550;50.472;19.744;2023-07-29T00:54:03;7.10;;;3.50;;
50301;SDS011;36550;50.472;19.744;2023-07-29T00:56:47;4.30;;;3.30;;
50301;SDS011;36550;50.472;19.744;2023-07-29T00:59:31;5.80;;;3.50;;
50301;SDS011;36550;50.472;19.744;2023-07-29T01:02:15;6.00;;;3.30;;
50301;SDS011;36550;50.472;19.744;2023-07-29T01:05:00;7.90;;;3.40;;
50301;SDS011;36550;50.472;19.744;2023-07-29T01:17:07;4.70;;;3.30;;
50301;SDS011;36550;50.472;19.744;2023-07-29T01:22:40;8.50;;;3.30;;
50301;SDS011;36550;50.472;19.744;2023-07-29T01:25:25;5.40;;;3.30;;
50301;SDS011;36550;50.472;19.744;2023-07-29T01:28:10;6.10;;;3.50;;
50301;SDS011;36550;50.472;19.744;2023-07-29T01:31:10;5.50;;;3.30;;
50301;SDS011;36550;50.472;19.744;2023-07-29T01:34:06;5.50;;;3.40;;
50301;SDS011;36550;50.472;19.744;2023-07-29T01:36:57;6.80;;;3.60;;
50301;SDS011;36550;50.472;19.744;2023-07-29T01:39:46;8.20;;;4.40;;
50301;SDS011;36550;50.472;19.744;2023-07-29T01:42:34;7.50;;;3.50;;
50301;SDS011;36550;50.472;19.744;2023-07-29T01:45:19;8.30;;;3.70;;
50301;SDS011;36550;50.472;19.744;2023-07-29T01:48:07;6.80;;;3.20;;
50301;SDS011;36550;50.472;19.744;2023-07-29T01:50:52;7.30;;;3.30;;
50301;SDS011;36550;50.472;19.744;2023-07-29T01:53:37;5.40;;;3.40;;
50301;SDS011;36550;50.472;19.744;2023-07-29T01:56:22;8.30;;;5.30;;
50301;SDS011;36550;50.472;19.744;2023-07-29T01:59:27;9.50;;;5.30;;
50301;SDS011;36550;50.472;19.744;2023-07-29T02:02:11;8.30;;;5.90;;
50301;SDS011;36550;50.472;19.744;2023-07-29T02:04:55;10.20;;;5.30;;
50301;SDS011;36550;50.472;19.744;2023-07-29T02:07:40;7.90;;;5.30;;
50301;SDS011;36550;50.472;19.744;2023-07-29T02:10:24;8.90;;;5.00;;
50301;SDS011;36550;50.472;19.744;2023-07-29T02:13:08;10.20;;;6.70;;
50301;SDS011;36550;50.472;19.744;2023-07-29T02:16:12;11.70;;;6.60;;
50301;SDS011;36550;50.472;19.744;2023-07-29T02:19:03;15.50;;;9.20;;
50301;SDS011;36550;50.472;19.744;2023-07-29T02:21:48;12.20;;;8.40;;
50301;SDS011;36550;50.472;19.744;2023-07-29T02:24:31;15.40;;;9.30;;
50301;SDS011;36550;50.472;19.744;2023-07-29T02:30:01;15.90;;;10.40;;
50301;SDS011;36550;50.472;19.744;2023-07-29T02:32:46;16.50;;;10.60;;
50301;SDS011;36550;50.472;19.744;2023-07-29T02:38:18;17.70;;;9.80;;
50301;SDS011;36550;50.472;19.744;2023-07-29T02:41:02;14.90;;;10.10;;
50301;SDS011;36550;50.472;19.744;2023-07-29T02:43:50;16.00;;;10.20;;
50301;SDS011;36550;50.472;19.744;2023-07-29T02:46:35;16.50;;;9.90;;
50301;SDS011;36550;50.472;19.744;2023-07-29T02:49:19;15.90;;;9.70;;
50301;SDS011;36550;50.472;19.744;2023-07-29T02:52:03;15.20;;;10.20;;
50301;SDS011;36550;50.472;19.744;2023-07-29T02:54:49;13.50;;;9.10;;
50301;SDS011;36550;50.472;19.744;2023-07-29T02:57:34;14.80;;;9.80;;
50301;SDS011;36550;50.472;19.744;2023-07-29T03:00:38;14.80;;;10.00;;
50301;SDS011;36550;50.472;19.744;2023-07-29T03:03:25;14.60;;;9.00;;
50301;SDS011;36550;50.472;19.744;2023-07-29T03:06:13;11.90;;;8.30;;
50301;SDS011;36550;50.472;19.744;2023-07-29T03:08:58;13.00;;;8.10;;
50301;SDS011;36550;50.472;19.744;2023-07-29T03:11:44;16.40;;;7.70;;
50301;SDS011;36550;50.472;19.744;2023-07-29T03:14:29;12.70;;;8.10;;
50301;SDS011;36550;50.472;19.744;2023-07-29T03:17:15;16.60;;;8.30;;
50301;SDS011;36550;50.472;19.744;2023-07-29T03:20:01;11.40;;;7.50;;
50301;SDS011;36550;50.472;19.744;2023-07-29T03:22:46;14.10;;;7.90;;
50301;SDS011;36550;50.472;19.744;2023-07-29T03:25:31;18.90;;;8.90;;
50301;SDS011;36550;50.472;19.744;2023-07-29T03:28:17;19.70;;;7.90;;
50301;SDS011;36550;50.472;19.744;2023-07-29T03:31:01;21.30;;;9.00;;
50301;SDS011;36550;50.472;19.744;2023-07-29T03:36:31;16.90;;;8.60;;
50301;SDS011;36550;50.472;19.744;2023-07-29T03:39:35;16.10;;;8.70;;
50301;SDS011;36550;50.472;19.744;2023-07-29T03:42:20;14.20;;;8.00;;
50301;SDS011;36550;50.472;19.744;2023-07-29T03:45:05;12.90;;;8.20;;
50301;SDS011;36550;50.472;19.744;2023-07-29T03:50:35;14.60;;;7.60;;
50301;SDS011;36550;50.472;19.744;2023-07-29T03:53:21;11.60;;;7.40;;
50301;SDS011;36550;50.472;19.744;2023-07-29T03:56:06;11.90;;;7.40;;
50301;SDS011;36550;50.472;19.744;2023-07-29T03:58:51;12.90;;;7.40;;
50301;SDS011;36550;50.472;19.744;2023-07-29T04:01:36;10.00;;;6.20;;
50301;SDS011;36550;50.472;19.744;2023-07-29T04:04:21;10.50;;;5.40;;
50301;SDS011;36550;50.472;19.744;2023-07-29T04:07:05;9.80;;;5.50;;
50301;SDS011;36550;50.472;19.744;2023-07-29T04:09:49;9.50;;;5.80;;
50301;SDS011;36550;50.472;19.744;2023-07-29T04:12:34;13.60;;;8.70;;
50301;SDS011;36550;50.472;19.744;2023-07-29T04:15:20;11.80;;;9.20;;
50301;SDS011;36550;50.472;19.744;2023-07-29T04:18:04;12.00;;;7.70;;
50301;SDS011;36550;50.472;19.744;2023-07-29T04:20:48;9.60;;;6.70;;
50301;SDS011;36550;50.472;19.744;2023-07-29T04:23:32;10.30;;;6.40;;
50301;SDS011;36550;50.472;19.744;2023-07-29T04:26:17;13.70;;;6.10;;
50301;SDS011;36550;50.472;19.744;2023-07-29T04:29:01;10.30;;;6.40;;
50301;SDS011;36550;50.472;19.744;2023-07-29T04:31:46;10.80;;;6.30;;
50301;SDS011;36550;50.472;19.744;2023-07-29T04:34:30;13.40;;;6.50;;
50301;SDS011;36550;50.472;19.744;2023-07-29T04:37:15;10.70;;;5.90;;
50301;SDS011;36550;50.472;19.744;2023-07-29T04:40:01;8.40;;;5.30;;
50301;SDS011;36550;50.472;19.744;2023-07-29T04:42:49;9.00;;;4.90;;
50301;SDS011;36550;50.472;19.744;2023-07-29T04:45:33;7.80;;;4.30;;
50301;SDS011;36550;50.472;19.744;2023-07-29T04:48:18;9.70;;;5.40;;
50301;SDS011;36550;50.472;19.744;2023-07-29T04:51:02;11.60;;;4.90;;
50301;SDS011;36550;50.472;19.744;2023-07-29T04:53:47;14.70;;;5.70;;
50301;SDS011;36550;50.472;19.744;2023-07-29T04:56:31;9.00;;;5.30;;
50301;SDS011;36550;50.472;19.744;2023-07-29T04:59:15;13.20;;;6.40;;
50301;SDS011;36550;50.472;19.744;2023-07-29T05:02:19;15.00;;;7.20;;
50301;SDS011;36550;50.472;19.744;2023-07-29T05:05:05;10.90;;;5.70;;
50301;SDS011;36550;50.472;19.744;2023-07-29T05:07:50;8.90;;;4.50;;
50301;SDS011;36550;50.472;19.744;2023-07-29T05:10:34;7.00;;;4.00;;
50301;SDS011;36550;50.472;19.744;2023-07-29T05:13:18;7.70;;;3.80;;
50301;SDS011;36550;50.472;19.744;2023-07-29T05:16:03;8.10;;;4.20;;
50301;SDS011;36550;50.472;19.744;2023-07-29T05:18:47;7.50;;;3.90;;
50301;SDS011;36550;50.472;19.744;2023-07-29T05:21:31;8.90;;;4.50;;
50301;SDS011;36550;50.472;19.744;2023-07-29T05:24:15;8.70;;;5.00;;
50301;SDS011;36550;50.472;19.744;2023-07-29T05:26:59;9.30;;;5.00;;
50301;SDS011;36550;50.472;19.744;2023-07-29T05:29:43;7.00;;;4.10;;
50301;SDS011;36550;50.472;19.744;2023-07-29T05:32:27;11.60;;;4.20;;
50301;SDS011;36550;50.472;19.744;2023-07-29T05:35:13;7.70;;;4.00;;
50301;SDS011;36550;50.472;19.744;2023-07-29T05:37:58;9.20;;;4.90;;
50301;SDS011;36550;50.472;19.744;2023-07-29T05:40:42;11.80;;;5.00;;
50301;SDS011;36550;50.472;19.744;2023-07-29T05:43:26;10.40;;;4.20;;
50301;SDS011;36550;50.472;19.744;2023-07-29T05:46:11;9.50;;;3.80;;
50301;SDS011;36550;50.472;19.744;2023-07-29T05:48:56;10.00;;;4.80;;
50301;SDS011;36550;50.472;19.744;2023-07-29T05:51:40;8.40;;;3.80;;
50301;SDS011;36550;50.472;19.744;2023-07-29T05:54:25;5.40;;;3.40;;
50301;SDS011;36550;50.472;19.744;2023-07-29T05:57:09;7.00;;;3.60;;
50301;SDS011;36550;50.472;19.744;2023-07-29T05:59:55;5.70;;;3.40;;
50301;SDS011;36550;50.472;19.744;2023-07-29T06:02:39;4.40;;;2.90;;
50301;SDS011;36550;50.472;19.744;2023-07-29T06:05:24;7.70;;;2.80;;
50301;SDS011;36550;50.472;19.744;2023-07-29T06:08:09;6.80;;;3.10;;
50301;SDS011;36550;50.472;19.744;2023-07-29T06:10:54;4.20;;;2.30;;
50301;SDS011;36550;50.472;19.744;2023-07-29T06:13:38;5.80;;;2.50;;
50301;SDS011;36550;50.472;19.744;2023-07-29T06:16:22;7.10;;;2.50;;
50301;SDS011;36550;50.472;19.744;2023-07-29T06:19:07;19.80;;;3.90;;
50301;SDS011;36550;50.472;19.744;2023-07-29T06:21:54;7.00;;;4.10;;
50301;SDS011;36550;50.472;19.744;2023-07-29T06:24:39;6.00;;;2.40;;
50301;SDS011;36550;50.472;19.744;2023-07-29T06:27:24;6.20;;;3.50;;
50301;SDS011;36550;50.472;19.744;2023-07-29T06:30:09;6.40;;;2.80;;
50301;SDS011;36550;50.472;19.744;2023-07-29T06:32:53;6.00;;;4.20;;
50301;SDS011;36550;50.472;19.744;2023-07-29T06:35:38;4.20;;;2.00;;
50301;SDS011;36550;50.472;19.744;2023-07-29T06:38:22;3.50;;;1.80;;
50301;SDS011;36550;50.472;19.744;2023-07-29T06:41:05;2.80;;;1.70;;
50301;SDS011;36550;50.472;19.744;2023-07-29T06:43:49;2.90;;;1.70;;
50301;SDS011;36550;50.472;19.744;2023-07-29T06:46:33;4.20;;;1.70;;
50301;SDS011;36550;50.472;19.744;2023-07-29T06:49:17;2.70;;;1.80;;
50301;SDS011;36550;50.472;19.744;2023-07-29T06:52:01;5.20;;;1.80;;
50301;SDS011;36550;50.472;19.744;2023-07-29T06:54:45;4.60;;;1.80;;
50301;SDS011;36550;50.472;19.744;2023-07-29T06:57:29;9.50;;;3.60;;
50301;SDS011;36550;50.472;19.744;2023-07-29T07:00:13;7.70;;;2.20;;
50301;SDS011;36550;50.472;19.744;2023-07-29T07:02:58;6.40;;;2.20;;
50301;SDS011;36550;50.472;19.744;2023-07-29T07:06:02;5.50;;;2.30;;
50301;SDS011;36550;50.472;19.744;2023-07-29T07:08:47;6.90;;;2.20;;
50301;SDS011;36550;50.472;19.744;2023-07-29T07:11:32;5.50;;;2.30;;
50301;SDS011;36550;50.472;19.744;2023-07-29T07:14:16;3.40;;;1.90;;
50301;SDS011;36550;50.472;19.744;2023-07-29T07:17:00;5.60;;;2.30;;
50301;SDS011;36550;50.472;19.744;2023-07-29T07:19:44;3.10;;;2.00;;
50301;SDS011;36550;50.472;19.744;2023-07-29T07:22:30;4.10;;;2.00;;
50301;SDS011;36550;50.472;19.744;2023-07-29T07:25:14;2.50;;;1.70;;
50301;SDS011;36550;50.472;19.744;2023-07-29T07:27:58;3.40;;;1.90;;
50301;SDS011;36550;50.472;19.744;2023-07-29T07:30:42;2.60;;;1.60;;
50301;SDS011;36550;50.472;19.744;2023-07-29T07:33:26;2.50;;;1.60;;
50301;SDS011;36550;50.472;19.744;2023-07-29T07:36:10;2.60;;;1.60;;
50301;SDS011;36550;50.472;19.744;2023-07-29T07:38:55;3.00;;;2.10;;
50301;SDS011;36550;50.472;19.744;2023-07-29T07:41:39;10.10;;;3.80;;
50301;SDS011;36550;50.472;19.744;2023-07-29T07:44:24;8.00;;;4.90;;
50301;SDS011;36550;50.472;19.744;2023-07-29T07:47:10;3.40;;;1.90;;
50301;SDS011;36550;50.472;19.744;2023-07-29T07:49:54;4.70;;;2.40;;
50301;SDS011;36550;50.472;19.744;2023-07-29T07:52:38;5.90;;;2.10;;
50301;SDS011;36550;50.472;19.744;2023-07-29T07:55:22;6.50;;;2.00;;
50301;SDS011;36550;50.472;19.744;2023-07-29T07:58:07;3.60;;;1.80;;
50301;SDS011;36550;50.472;19.744;2023-07-29T08:00:51;3.90;;;1.70;;
50301;SDS011;36550;50.472;19.744;2023-07-29T08:03:35;5.30;;;1.70;;
50301;SDS011;36550;50.472;19.744;2023-07-29T08:06:19;3.60;;;1.90;;
50301;SDS011;36550;50.472;19.744;2023-07-29T08:09:03;3.40;;;1.60;;
50301;SDS011;36550;50.472;19.744;2023-07-29T08:11:47;4.20;;;1.70;;
50301;SDS011;36550;50.472;19.744;2023-07-29T08:14:31;4.50;;;1.60;;
50301;SDS011;36550;50.472;19.744;2023-07-29T08:17:17;2.40;;;1.70;;
50301;SDS011;36550;50.472;19.744;2023-07-29T08:20:01;2.70;;;1.70;;
50301;SDS011;36550;50.472;19.744;2023-07-29T08:22:45;2.40;;;1.70;;
50301;SDS011;36550;50.472;19.744;2023-07-29T08:28:14;4.20;;;1.60;;
50301;SDS011;36550;50.472;19.744;2023-07-29T08:30:59;3.70;;;1.80;;
50301;SDS011;36550;50.472;19.744;2023-07-29T08:33:43;3.60;;;1.60;;
50301;SDS011;36550;50.472;19.744;2023-07-29T08:36:27;4.20;;;1.70;;
50301;SDS011;36550;50.472;19.744;2023-07-29T08:39:11;3.30;;;1.60;;
50301;SDS011;36550;50.472;19.744;2023-07-29T08:42:04;3.40;;;1.70;;
50301;SDS011;36550;50.472;19.744;2023-07-29T08:44:54;2.50;;;1.90;;
50301;SDS011;36550;50.472;19.744;2023-07-29T08:47:40;2.80;;;2.00;;
50301;SDS011;36550;50.472;19.744;2023-07-29T08:50:24;6.60;;;2.00;;
50301;SDS011;36550;50.472;19.744;2023-07-29T08:53:09;5.20;;;2.10;;
50301;SDS011;36550;50.472;19.744;2023-07-29T08:55:54;3.80;;;2.10;;
50301;SDS011;36550;50.472;19.744;2023-07-29T08:58:39;4.40;;;1.90;;
50301;SDS011;36550;50.472;19.744;2023-07-29T09:01:24;2.70;;;2.00;;
50301;SDS011;36550;50.472;19.744;2023-07-29T09:04:08;4.00;;;2.20;;
50301;SDS011;36550;50.472;19.744;2023-07-29T09:06:52;2.70;;;1.90;;
50301;SDS011;36550;50.472;19.744;2023-07-29T09:09:39;3.40;;;2.20;;
50301;SDS011;36550;50.472;19.744;2023-07-29T09:12:22;4.10;;;2.30;;
50301;SDS011;36550;50.472;19.744;2023-07-29T09:15:07;3.90;;;2.30;;
50301;SDS011;36550;50.472;19.744;2023-07-29T09:17:51;5.00;;;2.40;;
50301;SDS011;36550;50.472;19.744;2023-07-29T09:20:35;4.90;;;2.90;;
50301;SDS011;36550;50.472;19.744;2023-07-29T09:23:20;4.60;;;2.10;;
50301;SDS011;36550;50.472;19.744;2023-07-29T09:26:04;5.50;;;2.50;;
50301;SDS011;36550;50.472;19.744;2023-07-29T09:28:50;3.60;;;2.30;;
50301;SDS011;36550;50.472;19.744;2023-07-29T09:31:36;4.50;;;2.40;;
50301;SDS011;36550;50.472;19.744;2023-07-29T09:34:20;6.00;;;2.10;;
50301;SDS011;36550;50.472;19.744;2023-07-29T09:37:04;7.50;;;3.90;;
50301;SDS011;36550;50.472;19.744;2023-07-29T09:42:34;5.30;;;3.90;;
50301;SDS011;36550;50.472;19.744;2023-07-29T09:48:04;5.70;;;3.20;;
50301;SDS011;36550;50.472;19.744;2023-07-29T09:50:52;7.60;;;3.60;;
50301;SDS011;36550;50.472;19.744;2023-07-29T09:53:44;6.50;;;3.70;;
50301;SDS011;36550;50.472;19.744;2023-07-29T09:56:30;8.30;;;3.10;;
50301;SDS011;36550;50.472;19.744;2023-07-29T09:59:15;3.60;;;2.10;;
50301;SDS011;36550;50.472;19.744;2023-07-29T10:02:03;5.90;;;2.10;;
50301;SDS011;36550;50.472;19.744;2023-07-29T10:04:47;4.30;;;1.90;;
50301;SDS011;36550;50.472;19.744;2023-07-29T10:07:34;4.90;;;1.90;;
50301;SDS011;36550;50.472;19.744;2023-07-29T10:10:20;4.70;;;1.80;;
50301;SDS011;36550;50.472;19.744;2023-07-29T10:13:05;3.70;;;1.80;;
50301;SDS011;36550;50.472;19.744;2023-07-29T10:15:50;3.20;;;1.80;;
50301;SDS011;36550;50.472;19.744;2023-07-29T10:18:34;4.40;;;2.10;;
50301;SDS011;36550;50.472;19.744;2023-07-29T10:21:18;2.70;;;1.90;;
50301;SDS011;36550;50.472;19.744;2023-07-29T10:24:06;2.90;;;2.10;;
50301;SDS011;36550;50.472;19.744;2023-07-29T10:26:58;5.00;;;2.20;;
50301;SDS011;36550;50.472;19.744;2023-07-29T10:29:43;7.00;;;2.20;;
50301;SDS011;36550;50.472;19.744;2023-07-29T10:32:29;5.10;;;2.40;;
50301;SDS011;36550;50.472;19.744;2023-07-29T10:35:15;2.60;;;1.50;;
50301;SDS011;36550;50.472;19.744;2023-07-29T10:38:00;2.70;;;1.70;;
50301;SDS011;36550;50.472;19.744;2023-07-29T10:43:43;2.90;;;1.60;;
50301;SDS011;36550;50.472;19.744;2023-07-29T10:46:28;4.10;;;1.60;;
50301;SDS011;36550;50.472;19.744;2023-07-29T10:49:18;2.70;;;1.60;;
50301;SDS011;36550;50.472;19.744;2023-07-29T10:52:07;3.10;;;1.80;;
50301;SDS011;36550;50.472;19.744;2023-07-29T10:54:52;3.20;;;1.50;;
50301;SDS011;36550;50.472;19.744;2023-07-29T10:57:37;2.10;;;1.30;;
50301;SDS011;36550;50.472;19.744;2023-07-29T11:00:24;1.90;;;1.40;;
50301;SDS011;36550;50.472;19.744;2023-07-29T11:03:18;2.20;;;1.40;;
50301;SDS011;36550;50.472;19.744;2023-07-29T11:06:04;1.70;;;1.10;;
50301;SDS011;36550;50.472;19.744;2023-07-29T11:08:49;6.90;;;1.50;;
50301;SDS011;36550;50.472;19.744;2023-07-29T11:11:34;2.00;;;1.20;;
50301;SDS011;36550;50.472;19.744;2023-07-29T11:14:22;2.20;;;1.20;;
50301;SDS011;36550;50.472;19.744;2023-07-29T11:17:08;1.60;;;1.30;;
50301;SDS011;36550;50.472;19.744;2023-07-29T11:19:53;1.90;;;1.10;;
50301;SDS011;36550;50.472;19.744;2023-07-29T11:22:41;1.40;;;1.10;;
50301;SDS011;36550;50.472;19.744;2023-07-29T11:25:26;2.30;;;1.30;;
50301;SDS011;36550;50.472;19.744;2023-07-29T11:28:12;1.70;;;1.10;;
50301;SDS011;36550;50.472;19.744;2023-07-29T11:30:57;2.20;;;1.10;;
50301;SDS011;36550;50.472;19.744;2023-07-29T11:33:41;1.60;;;1.10;;
50301;SDS011;36550;50.472;19.744;2023-07-29T11:36:25;1.80;;;1.20;;
50301;SDS011;36550;50.472;19.744;2023-07-29T11:39:09;3.40;;;1.20;;
50301;SDS011;36550;50.472;19.744;2023-07-29T11:41:54;1.50;;;1.10;;
50301;SDS011;36550;50.472;19.744;2023-07-29T11:44:38;1.70;;;1.30;;
50301;SDS011;36550;50.472;19.744;2023-07-29T11:47:23;2.40;;;1.40;;
50301;SDS011;36550;50.472;19.744;2023-07-29T11:50:08;1.40;;;1.00;;
50301;SDS011;36550;50.472;19.744;2023-07-29T11:52:53;3.00;;;1.40;;
50301;SDS011;36550;50.472;19.744;2023-07-29T11:55:37;2.80;;;1.40;;
50301;SDS011;36550;50.472;19.744;2023-07-29T11:58:22;2.00;;;1.40;;
50301;SDS011;36550;50.472;19.744;2023-07-29T12:01:07;1.50;;;1.20;;
50301;SDS011;36550;50.472;19.744;2023-07-29T12:03:51;4.40;;;1.40;;
50301;SDS011;36550;50.472;19.744;2023-07-29T12:06:36;1.90;;;1.50;;
50301;SDS011;36550;50.472;19.744;2023-07-29T12:09:22;3.50;;;1.60;;
50301;SDS011;36550;50.472;19.744;2023-07-29T12:12:07;2.10;;;1.40;;
50301;SDS011;36550;50.472;19.744;2023-07-29T12:20:23;6.60;;;2.50;;
50301;SDS011;36550;50.472;19.744;2023-07-29T12:26:01;2.40;;;1.40;;
50301;SDS011;36550;50.472;19.744;2023-07-29T12:28:46;1.90;;;1.20;;
50301;SDS011;36550;50.472;19.744;2023-07-29T12:31:31;4.10;;;1.40;;
50301;SDS011;36550;50.472;19.744;2023-07-29T12:34:18;2.30;;;1.30;;
50301;SDS011;36550;50.472;19.744;2023-07-29T12:37:05;6.40;;;1.80;;
50301;SDS011;36550;50.472;19.744;2023-07-29T12:39:50;1.90;;;1.40;;
50301;SDS011;36550;50.472;19.744;2023-07-29T12:42:34;3.30;;;1.40;;
50301;SDS011;36550;50.472;19.744;2023-07-29T12:45:19;4.00;;;1.50;;
50301;SDS011;36550;50.472;19.744;2023-07-29T12:48:06;3.70;;;1.50;;
50301;SDS011;36550;50.472;19.744;2023-07-29T12:50:51;5.20;;;1.90;;
50301;SDS011;36550;50.472;19.744;2023-07-29T12:53:35;1.80;;;1.40;;
50301;SDS011;36550;50.472;19.744;2023-07-29T12:56:20;3.40;;;1.20;;
50301;SDS011;36550;50.472;19.744;2023-07-29T12:59:04;2.40;;;1.30;;
50301;SDS011;36550;50.472;19.744;2023-07-29T13:01:49;5.80;;;1.50;;
50301;SDS011;36550;50.472;19.744;2023-07-29T13:04:33;11.30;;;2.20;;
50301;SDS011;36550;50.472;19.744;2023-07-29T13:07:17;3.70;;;1.40;;
50301;SDS011;36550;50.472;19.744;2023-07-29T13:10:01;2.50;;;1.40;;
50301;SDS011;36550;50.472;19.744;2023-07-29T13:12:46;2.50;;;1.40;;
50301;SDS011;36550;50.472;19.744;2023-07-29T13:15:30;1.30;;;1.20;;
50301;SDS011;36550;50.472;19.744;2023-07-29T13:18:21;2.30;;;1.50;;
50301;SDS011;36550;50.472;19.744;2023-07-29T13:21:05;3.60;;;1.60;;
50301;SDS011;36550;50.472;19.744;2023-07-29T13:23:49;1.40;;;1.00;;
50301;SDS011;36550;50.472;19.744;2023-07-29T13:26:33;1.60;;;1.20;;
50301;SDS011;36550;50.472;19.744;2023-07-29T13:29:17;4.70;;;1.30;;
50301;SDS011;36550;50.472;19.744;2023-07-29T13:32:01;1.80;;;1.30;;
50301;SDS011;36550;50.472;19.744;2023-07-29T13:34:45;1.70;;;1.40;;
50301;SDS011;36550;50.472;19.744;2023-07-29T13:37:29;1.80;;;1.20;;
50301;SDS011;36550;50.472;19.744;2023-07-29T13:40:13;2.10;;;1.20;;
50301;SDS011;36550;50.472;19.744;2023-07-29T13:42:58;1.80;;;1.10;;
50301;SDS011;36550;50.472;19.744;2023-07-29T13:45:42;2.90;;;1.20;;
50301;SDS011;36550;50.472;19.744;2023-07-29T13:48:26;3.30;;;1.30;;
50301;SDS011;36550;50.472;19.744;2023-07-29T13:51:10;3.90;;;1.30;;
50301;SDS011;36550;50.472;19.744;2023-07-29T13:53:54;1.70;;;1.30;;
50301;SDS011;36550;50.472;19.744;2023-07-29T13:56:40;3.10;;;1.50;;
50301;SDS011;36550;50.472;19.744;2023-07-29T13:59:24;1.90;;;1.40;;
50301;SDS011;36550;50.472;19.744;2023-07-29T14:02:08;1.80;;;1.30;;
50301;SDS011;36550;50.472;19.744;2023-07-29T14:04:52;3.20;;;1.60;;
50301;SDS011;36550;50.472;19.744;2023-07-29T14:07:36;3.80;;;1.80;;
50301;SDS011;36550;50.472;19.744;2023-07-29T14:10:21;3.10;;;1.50;;
50301;SDS011;36550;50.472;19.744;2023-07-29T14:13:05;2.50;;;1.30;;
50301;SDS011;36550;50.472;19.744;2023-07-29T14:15:49;2.00;;;1.40;;
50301;SDS011;36550;50.472;19.744;2023-07-29T14:18:33;1.40;;;1.10;;
50301;SDS011;36550;50.472;19.744;2023-07-29T14:21:17;3.50;;;1.60;;
50301;SDS011;36550;50.472;19.744;2023-07-29T14:24:01;1.40;;;1.10;;
50301;SDS011;36550;50.472;19.744;2023-07-29T14:26:45;2.00;;;1.20;;
50301;SDS011;36550;50.472;19.744;2023-07-29T14:29:29;3.50;;;1.30;;
50301;SDS011;36550;50.472;19.744;2023-07-29T14:32:13;2.50;;;1.40;;
50301;SDS011;36550;50.472;19.744;2023-07-29T14:34:57;4.00;;;1.20;;
50301;SDS011;36550;50.472;19.744;2023-07-29T14:37:41;1.60;;;1.20;;
50301;SDS011;36550;50.472;19.744;2023-07-29T14:40:25;2.20;;;1.10;;
50301;SDS011;36550;50.472;19.744;2023-07-29T14:45:54;2.40;;;1.10;;
50301;SDS011;36550;50.472;19.744;2023-07-29T14:48:38;1.50;;;0.90;;
50301;SDS011;36550;50.472;19.744;2023-07-29T14:51:22;1.70;;;1.30;;
50301;SDS011;36550;50.472;19.744;2023-07-29T14:54:07;3.20;;;1.00;;
50301;SDS011;36550;50.472;19.744;2023-07-29T14:56:51;3.30;;;1.40;;
50301;SDS011;36550;50.472;19.744;2023-07-29T14:59:35;3.50;;;1.10;;
50301;SDS011;36550;50.472;19.744;2023-07-29T15:02:19;2.00;;;0.90;;
50301;SDS011;36550;50.472;19.744;2023-07-29T15:05:03;1.50;;;0.90;;
50301;SDS011;36550;50.472;19.744;2023-07-29T15:07:48;1.20;;;0.90;;
50301;SDS011;36550;50.472;19.744;2023-07-29T15:10:32;1.50;;;1.00;;
50301;SDS011;36550;50.472;19.744;2023-07-29T15:13:16;2.00;;;0.90;;
50301;SDS011;36550;50.472;19.744;2023-07-29T15:16:00;2.80;;;0.90;;
50301;SDS011;36550;50.472;19.744;2023-07-29T15:18:44;2.90;;;0.90;;
50301;SDS011;36550;50.472;19.744;2023-07-29T15:21:28;1.40;;;0.90;;
50301;SDS011;36550;50.472;19.744;2023-07-29T15:24:12;1.10;;;0.70;;
50301;SDS011;36550;50.472;19.744;2023-07-29T15:26:56;1.00;;;0.70;;
50301;SDS011;36550;50.472;19.744;2023-07-29T15:29:40;2.50;;;0.90;;
50301;SDS011;36550;50.472;19.744;2023-07-29T15:32:24;1.40;;;0.80;;
50301;SDS011;36550;50.472;19.744;2023-07-29T15:35:09;1.30;;;0.90;;
50301;SDS011;36550;50.472;19.744;2023-07-29T15:37:53;2.70;;;0.80;;
50301;SDS011;36550;50.472;19.744;2023-07-29T15:40:37;2.30;;;0.90;;
50301;SDS011;36550;50.472;19.744;2023-07-29T15:43:25;0.80;;;0.70;;
50301;SDS011;36550;50.472;19.744;2023-07-29T15:46:09;3.30;;;0.90;;
50301;SDS011;36550;50.472;19.744;2023-07-29T15:48:53;1.20;;;0.80;;
50301;SDS011;36550;50.472;19.744;2023-07-29T15:51:39;2.70;;;1.00;;
50301;SDS011;36550;50.472;19.744;2023-07-29T15:54:23;1.80;;;1.00;;
50301;SDS011;36550;50.472;19.744;2023-07-29T15:57:07;2.00;;;0.90;;
50301;SDS011;36550;50.472;19.744;2023-07-29T15:59:52;1.90;;;1.10;;
50301;SDS011;36550;50.472;19.744;2023-07-29T16:02:36;1.90;;;1.00;;
50301;SDS011;36550;50.472;19.744;2023-07-29T16:05:22;1.40;;;0.90;;
50301;SDS011;36550;50.472;19.744;2023-07-29T16:08:06;1.70;;;1.10;;
50301;SDS011;36550;50.472;19.744;2023-07-29T16:10:50;2.60;;;1.30;;
50301;SDS011;36550;50.472;19.744;2023-07-29T16:13:34;7.10;;;1.40;;
50301;SDS011;36550;50.472;19.744;2023-07-29T16:16:18;2.00;;;1.30;;
50301;SDS011;36550;50.472;19.744;2023-07-29T16:19:03;2.90;;;1.40;;
50301;SDS011;36550;50.472;19.744;2023-07-29T16:21:47;3.10;;;1.50;;
50301;SDS011;36550;50.472;19.744;2023-07-29T16:24:31;1.90;;;1.50;;
50301;SDS011;36550;50.472;19.744;2023-07-29T16:27:15;2.90;;;1.40;;
50301;SDS011;36550;50.472;19.744;2023-07-29T16:30:01;3.80;;;1.40;;
50301;SDS011;36550;50.472;19.744;2023-07-29T16:32:52;4.30;;;1.30;;
50301;SDS011;36550;50.472;19.744;2023-07-29T16:35:36;2.10;;;1.30;;
50301;SDS011;36550;50.472;19.744;2023-07-29T16:38:20;2.00;;;1.00;;
50301;SDS011;36550;50.472;19.744;2023-07-29T16:41:05;4.30;;;1.50;;
50301;SDS011;36550;50.472;19.744;2023-07-29T16:43:49;7.40;;;1.30;;
50301;SDS011;36550;50.472;19.744;2023-07-29T16:46:33;1.70;;;1.20;;
50301;SDS011;36550;50.472;19.744;2023-07-29T16:49:17;1.80;;;1.20;;
50301;SDS011;36550;50.472;19.744;2023-07-29T16:52:01;7.50;;;1.40;;
50301;SDS011;36550;50.472;19.744;2023-07-29T16:54:45;2.40;;;1.40;;
50301;SDS011;36550;50.472;19.744;2023-07-29T16:57:29;2.40;;;1.30;;
50301;SDS011;36550;50.472;19.744;2023-07-29T17:00:13;50.00;;;3.60;;
50301;SDS011;36550;50.472;19.744;2023-07-29T17:02:57;18.20;;;1.80;;
50301;SDS011;36550;50.472;19.744;2023-07-29T17:05:41;18.80;;;1.90;;